04IL weather

Schertz Aerial Service - Hudson Airport
Hudson, Illinois, United States

Public forecast

Using degrees Fahrenheit for public forecast. Weather courtesy of forecast.io.

METAR (pilot weather report)

Closest report is Central Illinois Regional Airport at Bloomington-Normal, 10.5 nm (19.4 km) SSE. Retrieved 2019/06/25 10:56 UTC (33 minutes ago):

KBMI 251056Z 22008KT 10SM CLR 17/15 A2992 RMK AO2 SLP123 T01670150

TAF (pilot weather forecast)

Closest forecast is Central Illinois Regional Airport at Bloomington-Normal, 10.5 nm (19.4 km) SSE. Retrieved 2019/06/25 06:22 UTC (5 hours ago):

TAF KBMI 250520Z 2506/2606 24008KT P6SM SKC FM251400 23012KT P6SM FEW250 FM251700 23012G22KT P6SM SKC FM260100 21009KT P6SM BKN070 WS020/23040KT PROB30 2601/2603 5SM -TSRA BKN050CB FM260500 22007KT P6SM BKN100